world map with NVA marked

NVA - Airport

This information may not be accurate or current and is not valid for navigation or flight planning. No warranty of fitness for any purpose is made or implied.

flag of Huilaflag of Colombia

Donate via PayPal

Additional information is available on the NEW Great Circle Mapper

Location
City:  Neiva, Huila, Colombia
Name:Benito Salas Airport
ICAO / IATA:SKNV / NVA

Details
Type:Airport (Aerodrome, Airfield)
Latitude:2°57'02"N (2.950422)
Longitude:75°17'38"W (-75.293982)
Elevation:1464 ft (446 m)
Runways:1
Longest:5880 × 131 ft (1792 × 40 m)

Time
Timezone:UTC+29:08 (DST+31:08)
Local Time:

Weather
METAR:SKNV  160300Z VRB02KT 9999 FEW035 SCT090 BKN230 28/23 A2988

Related Locations
Nearby:
Farthest:PLM: 12450 mi / 20037 km
Palembang [Sultan Mahmud Badaruddin II Intl], SS, ID

Find:

   beyond  
but within

Other Information
Maps:
Sources:

  


 


Great Circle Mapper   Great Circle Mapper
Great Circle Mapper FAQ   Great Circle Mapper FAQ
  Karl's Home Page
KLS²   KLS² Home
   GC on Facebook
Airlines of the World   Airlines of the World
Donate via PayPal


Copyright © 2004-2018, Karl L. Swartz. All rights reserved.
All trademarks mentioned herein belong to their respective owners.

Please see credits for attribution and copyright information.

Karl Swartz <karl@kls2.com>
  Powered by FreeBSD
Valid HTML 4.01!
Labeled with ICRA
hCard Microformat
Geo Microformat